This is the latest recevied weather packets stored in our database for station/object OE-11331. If no packets are shown the sender has not sent any weather packets the latest 10 day(s).
| Time | Temp. | Humidity | Pressure | Rain* | Wind** | Luminosity | Snow |
|---|---|---|---|---|---|---|---|
| 1787951507 | 28.33° C | 39% | 1012.5 hPa | 0 mm | - | 0 W/m² | - |
| 1787951134 | 27.22° C | 48% | 1011.8 hPa | 0 mm | - | 0 W/m² | - |
| 1787950534 | 24.44° C | 66% | 1011.4 hPa | 0 mm | - | 0 W/m² | - |
| 1787949707 | 24.44° C | 67% | 1010.9 hPa | 0 mm | - | 0 W/m² | - |
| 1787949334 | 24.44° C | 66% | 1010.3 hPa | 0 mm | - | 0 W/m² | - |
| 1787948734 | 25° C | 65% | 1010 hPa | 0 mm | - | 0 W/m² | - |
| 1787947907 | 25.56° C | 55% | 1009.8 hPa | 0 mm | - | 0 W/m² | - |
| 1787947533 | 25° C | 62% | 1010 hPa | 0 mm | - | 0 W/m² | - |
| 1787946934 | 25.56° C | 61% | 1009.7 hPa | 0 mm | - | 0 W/m² | - |
| 1787946108 | 26.11° C | 62% | 1010 hPa | 0 mm | - | 0 W/m² | - |
| 1787945734 | 26.67° C | 55% | 1009.4 hPa | 0 mm | - | 0 W/m² | - |
| 1787945133 | 26.11° C | 61% | 1009.7 hPa | 0 mm | - | 0 W/m² | - |
| 1787944307 | 25.56° C | 66% | 1009.9 hPa | 0 mm | - | 0 W/m² | - |
| 1787943934 | 25.56° C | 66% | 1010 hPa | 0 mm | - | 0 W/m² | - |
| 1787943333 | 26.11° C | 65% | 1009.9 hPa | 0 mm | - | 0 W/m² | - |
| 1787942507 | 27.22° C | 58% | 1009.6 hPa | 0 mm | - | 0 W/m² | - |
| 1787942112 | 27.22° C | 57% | 1009.2 hPa | 0 mm | - | 0 W/m² | - |
| 1787940707 | 26.67° C | 66% | 1009.3 hPa | 0 mm | - | 0 W/m² | - |
| 1787940333 | 27.22° C | 66% | 1009.4 hPa | 0 mm | - | 0 W/m² | - |
| 1787939733 | 27.78° C | 64% | 1009 hPa | 0 mm | - | 11 W/m² | - |
| 1787938907 | 27.78° C | 61% | 1009 hPa | 0 mm | - | 11 W/m² | - |
| 1787938534 | 27.78° C | 62% | 1009.3 hPa | 0 mm | - | 22 W/m² | - |
| 1787937934 | 28.33° C | 62% | 1008.9 hPa | 0 mm | - | 22 W/m² | - |
| 1787937107 | 28.33° C | 60% | 1008.7 hPa | 0 mm | - | 32 W/m² | - |
| 1787936733 | 28.33° C | 64% | 1008.9 hPa | 0 mm | - | 43 W/m² | - |
* Rain latest hour (hover to see other rain measurements)
** Current wind speed in m/s (hover to see current wind gust speed)